sensor_id;sensor_type;location;lat;lon;timestamp;P1;durP1;ratioP1;P2;durP2;ratioP2
4756;SDS011;2392;52.578;13.426;2022-12-18T00:01:00;33.70;;;16.92;;
4756;SDS011;2392;52.578;13.426;2022-12-18T00:03:31;34.95;;;15.77;;
4756;SDS011;2392;52.578;13.426;2022-12-18T00:05:58;31.80;;;15.30;;
4756;SDS011;2392;52.578;13.426;2022-12-18T00:08:26;37.13;;;16.27;;
4756;SDS011;2392;52.578;13.426;2022-12-18T00:10:52;31.95;;;15.73;;
4756;SDS011;2392;52.578;13.426;2022-12-18T00:13:20;33.13;;;15.23;;
4756;SDS011;2392;52.578;13.426;2022-12-18T00:15:48;40.50;;;16.03;;
4756;SDS011;2392;52.578;13.426;2022-12-18T00:18:15;35.17;;;16.23;;
4756;SDS011;2392;52.578;13.426;2022-12-18T00:20:42;36.65;;;15.65;;
4756;SDS011;2392;52.578;13.426;2022-12-18T00:23:09;35.50;;;16.92;;
4756;SDS011;2392;52.578;13.426;2022-12-18T00:25:36;32.80;;;15.90;;
4756;SDS011;2392;52.578;13.426;2022-12-18T00:28:03;40.47;;;15.97;;
4756;SDS011;2392;52.578;13.426;2022-12-18T00:30:30;33.08;;;16.30;;
4756;SDS011;2392;52.578;13.426;2022-12-18T00:32:59;36.23;;;16.87;;
4756;SDS011;2392;52.578;13.426;2022-12-18T00:35:26;30.45;;;15.57;;
4756;SDS011;2392;52.578;13.426;2022-12-18T00:37:53;34.80;;;16.47;;
4756;SDS011;2392;52.578;13.426;2022-12-18T00:40:21;33.13;;;14.50;;
4756;SDS011;2392;52.578;13.426;2022-12-18T00:42:48;32.42;;;15.40;;
4756;SDS011;2392;52.578;13.426;2022-12-18T00:45:21;33.63;;;14.57;;
4756;SDS011;2392;52.578;13.426;2022-12-18T00:47:50;31.98;;;15.25;;
4756;SDS011;2392;52.578;13.426;2022-12-18T00:50:19;42.22;;;16.10;;
4756;SDS011;2392;52.578;13.426;2022-12-18T00:52:47;31.80;;;14.37;;
4756;SDS011;2392;52.578;13.426;2022-12-18T00:55:14;27.17;;;14.60;;
4756;SDS011;2392;52.578;13.426;2022-12-18T00:57:41;29.83;;;14.25;;
4756;SDS011;2392;52.578;13.426;2022-12-18T01:00:10;30.05;;;15.13;;
4756;SDS011;2392;52.578;13.426;2022-12-18T01:02:39;32.20;;;14.25;;
4756;SDS011;2392;52.578;13.426;2022-12-18T01:05:07;33.13;;;14.90;;
4756;SDS011;2392;52.578;13.426;2022-12-18T01:07:35;29.88;;;14.43;;
4756;SDS011;2392;52.578;13.426;2022-12-18T01:10:03;30.45;;;14.43;;
4756;SDS011;2392;52.578;13.426;2022-12-18T01:12:31;26.67;;;13.27;;
4756;SDS011;2392;52.578;13.426;2022-12-18T01:14:58;28.37;;;14.50;;
4756;SDS011;2392;52.578;13.426;2022-12-18T01:17:25;34.30;;;15.33;;
4756;SDS011;2392;52.578;13.426;2022-12-18T01:19:53;34.23;;;15.63;;
4756;SDS011;2392;52.578;13.426;2022-12-18T01:22:20;35.80;;;14.50;;
4756;SDS011;2392;52.578;13.426;2022-12-18T01:24:48;29.80;;;14.57;;
4756;SDS011;2392;52.578;13.426;2022-12-18T01:27:16;27.98;;;15.07;;
4756;SDS011;2392;52.578;13.426;2022-12-18T01:29:43;29.60;;;14.17;;
4756;SDS011;2392;52.578;13.426;2022-12-18T01:32:10;29.07;;;13.70;;
4756;SDS011;2392;52.578;13.426;2022-12-18T01:34:37;26.30;;;12.10;;
4756;SDS011;2392;52.578;13.426;2022-12-18T01:37:04;29.17;;;13.18;;
4756;SDS011;2392;52.578;13.426;2022-12-18T01:39:31;27.40;;;13.05;;
4756;SDS011;2392;52.578;13.426;2022-12-18T01:42:00;30.65;;;13.50;;
4756;SDS011;2392;52.578;13.426;2022-12-18T01:44:50;27.52;;;13.70;;
4756;SDS011;2392;52.578;13.426;2022-12-18T01:47:23;29.15;;;13.85;;
4756;SDS011;2392;52.578;13.426;2022-12-18T01:49:52;25.17;;;13.40;;
4756;SDS011;2392;52.578;13.426;2022-12-18T01:52:20;24.60;;;13.18;;
4756;SDS011;2392;52.578;13.426;2022-12-18T01:54:48;31.30;;;14.00;;
4756;SDS011;2392;52.578;13.426;2022-12-18T01:57:17;28.75;;;14.10;;
4756;SDS011;2392;52.578;13.426;2022-12-18T01:59:45;32.08;;;14.68;;
4756;SDS011;2392;52.578;13.426;2022-12-18T02:02:17;29.88;;;13.05;;
4756;SDS011;2392;52.578;13.426;2022-12-18T02:04:45;34.97;;;14.15;;
4756;SDS011;2392;52.578;13.426;2022-12-18T02:07:14;30.75;;;12.80;;
4756;SDS011;2392;52.578;13.426;2022-12-18T02:09:50;26.05;;;13.38;;
4756;SDS011;2392;52.578;13.426;2022-12-18T02:12:24;28.45;;;12.70;;
4756;SDS011;2392;52.578;13.426;2022-12-18T02:14:58;23.35;;;12.25;;
4756;SDS011;2392;52.578;13.426;2022-12-18T02:17:37;35.13;;;14.15;;
4756;SDS011;2392;52.578;13.426;2022-12-18T02:20:10;26.02;;;12.88;;
4756;SDS011;2392;52.578;13.426;2022-12-18T02:22:46;26.65;;;12.35;;
4756;SDS011;2392;52.578;13.426;2022-12-18T02:25:28;28.57;;;14.00;;
4756;SDS011;2392;52.578;13.426;2022-12-18T02:28:28;23.60;;;12.35;;
4756;SDS011;2392;52.578;13.426;2022-12-18T02:31:04;35.85;;;14.70;;
4756;SDS011;2392;52.578;13.426;2022-12-18T02:33:35;30.13;;;13.27;;
4756;SDS011;2392;52.578;13.426;2022-12-18T02:36:04;31.17;;;14.27;;
4756;SDS011;2392;52.578;13.426;2022-12-18T02:38:33;31.88;;;14.30;;
4756;SDS011;2392;52.578;13.426;2022-12-18T02:41:11;32.13;;;15.52;;
4756;SDS011;2392;52.578;13.426;2022-12-18T02:43:45;38.65;;;17.02;;
4756;SDS011;2392;52.578;13.426;2022-12-18T02:46:25;36.40;;;15.90;;
4756;SDS011;2392;52.578;13.426;2022-12-18T02:48:57;36.70;;;15.43;;
4756;SDS011;2392;52.578;13.426;2022-12-18T02:51:40;41.25;;;16.42;;
4756;SDS011;2392;52.578;13.426;2022-12-18T02:54:19;35.75;;;16.63;;
4756;SDS011;2392;52.578;13.426;2022-12-18T02:56:57;36.63;;;15.85;;
4756;SDS011;2392;52.578;13.426;2022-12-18T02:59:36;50.53;;;19.83;;
4756;SDS011;2392;52.578;13.426;2022-12-18T03:02:10;39.33;;;17.50;;
4756;SDS011;2392;52.578;13.426;2022-12-18T03:04:47;44.15;;;19.17;;
4756;SDS011;2392;52.578;13.426;2022-12-18T03:07:20;46.83;;;18.40;;
4756;SDS011;2392;52.578;13.426;2022-12-18T03:09:52;47.50;;;17.83;;
4756;SDS011;2392;52.578;13.426;2022-12-18T03:12:22;47.15;;;19.90;;
4756;SDS011;2392;52.578;13.426;2022-12-18T03:14:57;50.00;;;20.83;;
4756;SDS011;2392;52.578;13.426;2022-12-18T03:17:29;45.85;;;18.77;;
4756;SDS011;2392;52.578;13.426;2022-12-18T03:19:58;51.05;;;20.40;;
4756;SDS011;2392;52.578;13.426;2022-12-18T03:22:32;47.55;;;19.55;;
4756;SDS011;2392;52.578;13.426;2022-12-18T03:25:03;43.60;;;19.48;;
4756;SDS011;2392;52.578;13.426;2022-12-18T03:27:36;45.83;;;19.25;;
4756;SDS011;2392;52.578;13.426;2022-12-18T03:30:11;50.97;;;19.40;;
4756;SDS011;2392;52.578;13.426;2022-12-18T03:32:41;51.83;;;20.60;;
4756;SDS011;2392;52.578;13.426;2022-12-18T03:35:13;52.75;;;21.88;;
4756;SDS011;2392;52.578;13.426;2022-12-18T03:37:47;53.35;;;21.63;;
4756;SDS011;2392;52.578;13.426;2022-12-18T03:40:14;51.53;;;20.85;;
4756;SDS011;2392;52.578;13.426;2022-12-18T03:42:45;46.35;;;20.42;;
4756;SDS011;2392;52.578;13.426;2022-12-18T03:45:19;53.40;;;20.63;;
4756;SDS011;2392;52.578;13.426;2022-12-18T03:47:52;52.30;;;20.90;;
4756;SDS011;2392;52.578;13.426;2022-12-18T03:50:30;47.10;;;21.17;;
4756;SDS011;2392;52.578;13.426;2022-12-18T03:53:08;44.63;;;19.83;;
4756;SDS011;2392;52.578;13.426;2022-12-18T03:55:47;50.93;;;19.20;;
4756;SDS011;2392;52.578;13.426;2022-12-18T03:58:19;48.45;;;20.45;;
4756;SDS011;2392;52.578;13.426;2022-12-18T04:01:13;42.65;;;16.58;;
4756;SDS011;2392;52.578;13.426;2022-12-18T04:03:43;35.58;;;16.60;;
4756;SDS011;2392;52.578;13.426;2022-12-18T04:06:12;39.03;;;16.58;;
4756;SDS011;2392;52.578;13.426;2022-12-18T04:08:42;40.63;;;17.88;;
4756;SDS011;2392;52.578;13.426;2022-12-18T04:11:15;39.92;;;16.98;;
4756;SDS011;2392;52.578;13.426;2022-12-18T04:13:46;38.55;;;16.08;;
4756;SDS011;2392;52.578;13.426;2022-12-18T04:16:20;31.52;;;15.50;;
4756;SDS011;2392;52.578;13.426;2022-12-18T04:18:51;32.58;;;15.73;;
4756;SDS011;2392;52.578;13.426;2022-12-18T04:21:20;37.20;;;16.02;;
4756;SDS011;2392;52.578;13.426;2022-12-18T04:23:48;39.25;;;19.00;;
4756;SDS011;2392;52.578;13.426;2022-12-18T04:26:18;37.08;;;15.57;;
4756;SDS011;2392;52.578;13.426;2022-12-18T04:28:57;35.78;;;16.77;;
4756;SDS011;2392;52.578;13.426;2022-12-18T04:31:24;33.85;;;14.98;;
4756;SDS011;2392;52.578;13.426;2022-12-18T04:33:52;32.17;;;15.15;;
4756;SDS011;2392;52.578;13.426;2022-12-18T04:36:19;28.73;;;14.80;;
4756;SDS011;2392;52.578;13.426;2022-12-18T04:38:46;34.70;;;15.80;;
4756;SDS011;2392;52.578;13.426;2022-12-18T04:41:15;39.30;;;16.77;;
4756;SDS011;2392;52.578;13.426;2022-12-18T04:43:45;36.13;;;16.98;;
4756;SDS011;2392;52.578;13.426;2022-12-18T04:46:13;34.15;;;15.93;;
4756;SDS011;2392;52.578;13.426;2022-12-18T04:48:40;44.33;;;16.85;;
4756;SDS011;2392;52.578;13.426;2022-12-18T04:51:07;36.75;;;15.27;;
4756;SDS011;2392;52.578;13.426;2022-12-18T04:53:34;34.38;;;16.35;;
4756;SDS011;2392;52.578;13.426;2022-12-18T04:56:02;33.40;;;16.08;;
4756;SDS011;2392;52.578;13.426;2022-12-18T04:58:31;33.17;;;13.50;;
4756;SDS011;2392;52.578;13.426;2022-12-18T05:00:58;33.40;;;14.85;;
4756;SDS011;2392;52.578;13.426;2022-12-18T05:03:26;30.90;;;14.05;;
4756;SDS011;2392;52.578;13.426;2022-12-18T05:05:53;29.88;;;13.80;;
4756;SDS011;2392;52.578;13.426;2022-12-18T05:08:20;26.58;;;12.75;;
4756;SDS011;2392;52.578;13.426;2022-12-18T05:10:47;35.67;;;14.80;;
4756;SDS011;2392;52.578;13.426;2022-12-18T05:13:14;27.38;;;13.48;;
4756;SDS011;2392;52.578;13.426;2022-12-18T05:15:41;28.05;;;12.18;;
4756;SDS011;2392;52.578;13.426;2022-12-18T05:18:08;29.90;;;14.15;;
4756;SDS011;2392;52.578;13.426;2022-12-18T05:20:37;29.55;;;12.80;;
4756;SDS011;2392;52.578;13.426;2022-12-18T05:23:04;28.63;;;12.93;;
4756;SDS011;2392;52.578;13.426;2022-12-18T05:25:30;31.75;;;14.65;;
4756;SDS011;2392;52.578;13.426;2022-12-18T05:27:57;32.97;;;13.77;;
4756;SDS011;2392;52.578;13.426;2022-12-18T05:30:24;28.42;;;12.65;;
4756;SDS011;2392;52.578;13.426;2022-12-18T05:32:52;34.58;;;14.65;;
4756;SDS011;2392;52.578;13.426;2022-12-18T05:35:19;30.60;;;13.70;;
4756;SDS011;2392;52.578;13.426;2022-12-18T05:37:48;29.92;;;14.48;;
4756;SDS011;2392;52.578;13.426;2022-12-18T05:40:15;30.67;;;13.77;;
4756;SDS011;2392;52.578;13.426;2022-12-18T05:42:42;33.13;;;14.30;;
4756;SDS011;2392;52.578;13.426;2022-12-18T05:45:09;30.33;;;14.18;;
4756;SDS011;2392;52.578;13.426;2022-12-18T05:47:36;33.58;;;14.20;;
4756;SDS011;2392;52.578;13.426;2022-12-18T05:50:03;34.65;;;13.52;;
4756;SDS011;2392;52.578;13.426;2022-12-18T05:52:32;32.25;;;13.90;;
4756;SDS011;2392;52.578;13.426;2022-12-18T05:55:00;31.25;;;15.07;;
4756;SDS011;2392;52.578;13.426;2022-12-18T05:57:27;33.95;;;14.52;;
4756;SDS011;2392;52.578;13.426;2022-12-18T05:59:54;33.75;;;15.02;;
4756;SDS011;2392;52.578;13.426;2022-12-18T06:02:21;32.90;;;15.07;;
4756;SDS011;2392;52.578;13.426;2022-12-18T06:04:48;31.27;;;14.00;;
4756;SDS011;2392;52.578;13.426;2022-12-18T06:07:16;30.67;;;13.38;;
4756;SDS011;2392;52.578;13.426;2022-12-18T06:09:43;35.22;;;15.43;;
4756;SDS011;2392;52.578;13.426;2022-12-18T06:12:12;36.83;;;16.42;;
4756;SDS011;2392;52.578;13.426;2022-12-18T06:14:39;39.85;;;15.18;;
4756;SDS011;2392;52.578;13.426;2022-12-18T06:17:06;41.05;;;16.23;;
4756;SDS011;2392;52.578;13.426;2022-12-18T06:19:33;33.13;;;13.32;;
4756;SDS011;2392;52.578;13.426;2022-12-18T06:22:00;40.42;;;16.35;;
4756;SDS011;2392;52.578;13.426;2022-12-18T06:24:27;42.60;;;17.13;;
4756;SDS011;2392;52.578;13.426;2022-12-18T06:26:54;36.87;;;16.07;;
4756;SDS011;2392;52.578;13.426;2022-12-18T06:29:22;38.72;;;16.75;;
4756;SDS011;2392;52.578;13.426;2022-12-18T06:31:49;41.45;;;17.08;;
4756;SDS011;2392;52.578;13.426;2022-12-18T06:34:16;39.55;;;16.10;;
4756;SDS011;2392;52.578;13.426;2022-12-18T06:36:43;40.40;;;18.27;;
4756;SDS011;2392;52.578;13.426;2022-12-18T06:39:10;34.50;;;15.73;;
4756;SDS011;2392;52.578;13.426;2022-12-18T06:41:37;42.25;;;17.08;;
4756;SDS011;2392;52.578;13.426;2022-12-18T06:44:04;39.57;;;15.80;;
4756;SDS011;2392;52.578;13.426;2022-12-18T06:46:33;43.28;;;17.55;;
4756;SDS011;2392;52.578;13.426;2022-12-18T06:49:00;45.42;;;18.90;;
4756;SDS011;2392;52.578;13.426;2022-12-18T06:51:27;48.88;;;18.40;;
4756;SDS011;2392;52.578;13.426;2022-12-18T06:53:54;51.35;;;20.42;;
4756;SDS011;2392;52.578;13.426;2022-12-18T06:56:21;36.70;;;16.70;;
4756;SDS011;2392;52.578;13.426;2022-12-18T06:58:48;38.47;;;16.80;;
4756;SDS011;2392;52.578;13.426;2022-12-18T07:01:15;43.07;;;17.93;;
4756;SDS011;2392;52.578;13.426;2022-12-18T07:03:43;44.10;;;17.75;;
4756;SDS011;2392;52.578;13.426;2022-12-18T07:06:14;39.47;;;16.77;;
4756;SDS011;2392;52.578;13.426;2022-12-18T07:08:43;39.95;;;16.98;;
4756;SDS011;2392;52.578;13.426;2022-12-18T07:11:10;39.25;;;17.05;;
4756;SDS011;2392;52.578;13.426;2022-12-18T07:13:37;37.63;;;16.75;;
4756;SDS011;2392;52.578;13.426;2022-12-18T07:16:05;39.30;;;17.08;;
4756;SDS011;2392;52.578;13.426;2022-12-18T07:18:33;39.10;;;16.13;;
4756;SDS011;2392;52.578;13.426;2022-12-18T07:21:04;41.08;;;18.30;;
4756;SDS011;2392;52.578;13.426;2022-12-18T07:23:31;33.42;;;15.63;;
4756;SDS011;2392;52.578;13.426;2022-12-18T07:26:00;34.47;;;16.55;;
4756;SDS011;2392;52.578;13.426;2022-12-18T07:28:28;36.70;;;16.88;;
4756;SDS011;2392;52.578;13.426;2022-12-18T07:30:55;34.63;;;14.73;;
4756;SDS011;2392;52.578;13.426;2022-12-18T07:33:22;32.15;;;15.20;;
4756;SDS011;2392;52.578;13.426;2022-12-18T07:35:49;39.80;;;16.42;;
4756;SDS011;2392;52.578;13.426;2022-12-18T07:38:18;44.47;;;18.00;;
4756;SDS011;2392;52.578;13.426;2022-12-18T07:40:45;37.28;;;16.88;;
4756;SDS011;2392;52.578;13.426;2022-12-18T07:43:11;39.50;;;17.27;;
4756;SDS011;2392;52.578;13.426;2022-12-18T07:45:38;37.85;;;15.57;;
4756;SDS011;2392;52.578;13.426;2022-12-18T07:48:05;37.15;;;16.15;;
4756;SDS011;2392;52.578;13.426;2022-12-18T07:50:32;40.45;;;17.67;;
4756;SDS011;2392;52.578;13.426;2022-12-18T07:52:59;41.42;;;16.20;;
4756;SDS011;2392;52.578;13.426;2022-12-18T07:55:30;35.22;;;16.58;;
4756;SDS011;2392;52.578;13.426;2022-12-18T07:58:00;37.07;;;15.27;;
4756;SDS011;2392;52.578;13.426;2022-12-18T08:00:27;44.55;;;17.45;;
4756;SDS011;2392;52.578;13.426;2022-12-18T08:02:54;33.38;;;15.45;;
4756;SDS011;2392;52.578;13.426;2022-12-18T08:05:21;37.25;;;16.67;;
4756;SDS011;2392;52.578;13.426;2022-12-18T08:07:51;43.40;;;16.30;;
4756;SDS011;2392;52.578;13.426;2022-12-18T08:10:19;37.22;;;16.67;;
4756;SDS011;2392;52.578;13.426;2022-12-18T08:12:49;42.08;;;16.17;;
4756;SDS011;2392;52.578;13.426;2022-12-18T08:15:17;35.90;;;16.27;;
4756;SDS011;2392;52.578;13.426;2022-12-18T08:17:44;36.00;;;16.57;;
4756;SDS011;2392;52.578;13.426;2022-12-18T08:20:11;35.60;;;15.35;;
4756;SDS011;2392;52.578;13.426;2022-12-18T08:22:51;36.00;;;16.40;;
4756;SDS011;2392;52.578;13.426;2022-12-18T08:25:19;35.63;;;16.42;;
4756;SDS011;2392;52.578;13.426;2022-12-18T08:27:46;35.88;;;15.93;;
4756;SDS011;2392;52.578;13.426;2022-12-18T08:30:14;35.00;;;16.13;;
4756;SDS011;2392;52.578;13.426;2022-12-18T08:32:41;29.73;;;15.57;;
4756;SDS011;2392;52.578;13.426;2022-12-18T08:35:08;35.10;;;15.30;;
4756;SDS011;2392;52.578;13.426;2022-12-18T08:37:37;34.67;;;15.73;;
4756;SDS011;2392;52.578;13.426;2022-12-18T08:40:04;27.85;;;14.88;;
4756;SDS011;2392;52.578;13.426;2022-12-18T08:42:37;23.53;;;13.40;;
4756;SDS011;2392;52.578;13.426;2022-12-18T08:45:23;30.88;;;14.63;;
4756;SDS011;2392;52.578;13.426;2022-12-18T08:47:51;31.50;;;13.80;;
4756;SDS011;2392;52.578;13.426;2022-12-18T08:50:21;30.80;;;14.50;;
4756;SDS011;2392;52.578;13.426;2022-12-18T08:52:48;34.72;;;15.77;;
4756;SDS011;2392;52.578;13.426;2022-12-18T08:55:15;35.45;;;15.40;;
4756;SDS011;2392;52.578;13.426;2022-12-18T08:57:42;31.42;;;14.45;;
4756;SDS011;2392;52.578;13.426;2022-12-18T09:00:10;30.02;;;14.50;;
4756;SDS011;2392;52.578;13.426;2022-12-18T09:02:40;24.70;;;13.13;;
4756;SDS011;2392;52.578;13.426;2022-12-18T09:05:07;32.58;;;14.73;;
4756;SDS011;2392;52.578;13.426;2022-12-18T09:07:35;32.00;;;14.53;;
4756;SDS011;2392;52.578;13.426;2022-12-18T09:10:02;28.02;;;14.20;;
4756;SDS011;2392;52.578;13.426;2022-12-18T09:12:32;29.48;;;13.93;;
4756;SDS011;2392;52.578;13.426;2022-12-18T09:14:59;28.58;;;13.88;;
4756;SDS011;2392;52.578;13.426;2022-12-18T09:17:26;26.40;;;13.77;;
4756;SDS011;2392;52.578;13.426;2022-12-18T09:19:54;37.07;;;15.03;;
4756;SDS011;2392;52.578;13.426;2022-12-18T09:22:24;33.58;;;14.20;;
4756;SDS011;2392;52.578;13.426;2022-12-18T09:24:51;27.65;;;14.10;;
4756;SDS011;2392;52.578;13.426;2022-12-18T09:27:21;37.13;;;15.40;;
4756;SDS011;2392;52.578;13.426;2022-12-18T09:29:48;31.10;;;15.38;;
4756;SDS011;2392;52.578;13.426;2022-12-18T09:32:15;29.80;;;15.98;;
4756;SDS011;2392;52.578;13.426;2022-12-18T09:34:48;25.40;;;12.45;;
4756;SDS011;2392;52.578;13.426;2022-12-18T09:37:16;36.58;;;14.60;;
4756;SDS011;2392;52.578;13.426;2022-12-18T09:40:00;34.30;;;15.17;;
4756;SDS011;2392;52.578;13.426;2022-12-18T09:42:34;27.20;;;13.30;;
4756;SDS011;2392;52.578;13.426;2022-12-18T09:45:07;29.37;;;14.57;;
4756;SDS011;2392;52.578;13.426;2022-12-18T09:47:48;30.95;;;14.02;;
4756;SDS011;2392;52.578;13.426;2022-12-18T09:50:19;34.30;;;13.43;;
4756;SDS011;2392;52.578;13.426;2022-12-18T09:52:56;31.60;;;14.50;;
4756;SDS011;2392;52.578;13.426;2022-12-18T09:55:28;28.92;;;14.25;;
4756;SDS011;2392;52.578;13.426;2022-12-18T09:58:00;30.97;;;14.47;;
4756;SDS011;2392;52.578;13.426;2022-12-18T10:00:35;36.33;;;15.83;;
4756;SDS011;2392;52.578;13.426;2022-12-18T10:03:03;29.90;;;14.07;;
4756;SDS011;2392;52.578;13.426;2022-12-18T10:05:36;32.58;;;15.50;;
4756;SDS011;2392;52.578;13.426;2022-12-18T10:08:12;30.27;;;15.50;;
4756;SDS011;2392;52.578;13.426;2022-12-18T10:10:46;29.60;;;14.03;;
4756;SDS011;2392;52.578;13.426;2022-12-18T10:13:22;36.27;;;16.40;;
4756;SDS011;2392;52.578;13.426;2022-12-18T10:16:01;32.93;;;14.60;;
4756;SDS011;2392;52.578;13.426;2022-12-18T10:18:42;35.00;;;17.63;;
4756;SDS011;2392;52.578;13.426;2022-12-18T10:21:27;32.63;;;15.17;;
4756;SDS011;2392;52.578;13.426;2022-12-18T10:24:01;34.07;;;15.10;;
4756;SDS011;2392;52.578;13.426;2022-12-18T10:26:43;35.43;;;17.03;;
4756;SDS011;2392;52.578;13.426;2022-12-18T10:29:11;31.07;;;15.07;;
4756;SDS011;2392;52.578;13.426;2022-12-18T10:31:40;34.17;;;15.10;;
4756;SDS011;2392;52.578;13.426;2022-12-18T10:34:09;36.77;;;16.93;;
4756;SDS011;2392;52.578;13.426;2022-12-18T10:36:40;32.40;;;15.93;;
4756;SDS011;2392;52.578;13.426;2022-12-18T10:39:17;36.07;;;16.07;;
4756;SDS011;2392;52.578;13.426;2022-12-18T10:41:45;36.47;;;17.17;;
4756;SDS011;2392;52.578;13.426;2022-12-18T10:44:16;30.00;;;15.03;;
4756;SDS011;2392;52.578;13.426;2022-12-18T10:46:53;37.20;;;17.60;;
4756;SDS011;2392;52.578;13.426;2022-12-18T10:49:29;35.83;;;16.23;;
4756;SDS011;2392;52.578;13.426;2022-12-18T10:52:04;34.70;;;15.77;;
4756;SDS011;2392;52.578;13.426;2022-12-18T10:54:38;36.10;;;15.90;;
4756;SDS011;2392;52.578;13.426;2022-12-18T10:57:16;31.30;;;15.23;;
4756;SDS011;2392;52.578;13.426;2022-12-18T10:59:55;39.87;;;16.77;;
4756;SDS011;2392;52.578;13.426;2022-12-18T11:02:26;31.10;;;13.60;;
4756;SDS011;2392;52.578;13.426;2022-12-18T11:04:59;34.43;;;16.00;;
4756;SDS011;2392;52.578;13.426;2022-12-18T11:07:29;29.80;;;14.50;;
4756;SDS011;2392;52.578;13.426;2022-12-18T11:10:25;36.17;;;15.30;;
4756;SDS011;2392;52.578;13.426;2022-12-18T11:13:01;44.90;;;17.77;;
4756;SDS011;2392;52.578;13.426;2022-12-18T11:15:41;37.17;;;16.08;;
4756;SDS011;2392;52.578;13.426;2022-12-18T11:18:15;37.83;;;17.40;;
4756;SDS011;2392;52.578;13.426;2022-12-18T11:20:49;32.40;;;15.90;;
4756;SDS011;2392;52.578;13.426;2022-12-18T11:23:18;37.87;;;16.03;;
4756;SDS011;2392;52.578;13.426;2022-12-18T11:25:51;33.73;;;16.00;;
4756;SDS011;2392;52.578;13.426;2022-12-18T11:31:17;34.20;;;15.57;;
4756;SDS011;2392;52.578;13.426;2022-12-18T11:33:53;30.13;;;14.67;;
4756;SDS011;2392;52.578;13.426;2022-12-18T11:36:29;30.97;;;14.97;;
4756;SDS011;2392;52.578;13.426;2022-12-18T11:39:05;31.40;;;15.37;;
4756;SDS011;2392;52.578;13.426;2022-12-18T11:41:41;33.20;;;15.15;;
4756;SDS011;2392;52.578;13.426;2022-12-18T11:44:35;35.63;;;16.00;;
4756;SDS011;2392;52.578;13.426;2022-12-18T11:47:09;33.30;;;15.40;;
4756;SDS011;2392;52.578;13.426;2022-12-18T11:49:41;30.17;;;14.60;;
4756;SDS011;2392;52.578;13.426;2022-12-18T11:52:14;36.80;;;14.97;;
4756;SDS011;2392;52.578;13.426;2022-12-18T11:54:44;28.63;;;14.48;;
4756;SDS011;2392;52.578;13.426;2022-12-18T11:57:16;33.37;;;14.33;;
4756;SDS011;2392;52.578;13.426;2022-12-18T12:00:01;33.53;;;14.90;;
4756;SDS011;2392;52.578;13.426;2022-12-18T12:03:13;28.75;;;13.20;;
4756;SDS011;2392;52.578;13.426;2022-12-18T12:05:57;27.07;;;12.67;;
4756;SDS011;2392;52.578;13.426;2022-12-18T12:08:34;23.03;;;11.70;;
4756;SDS011;2392;52.578;13.426;2022-12-18T12:11:13;22.90;;;12.40;;
4756;SDS011;2392;52.578;13.426;2022-12-18T12:14:01;23.97;;;11.00;;
4756;SDS011;2392;52.578;13.426;2022-12-18T12:16:37;29.07;;;12.77;;
4756;SDS011;2392;52.578;13.426;2022-12-18T12:19:16;28.37;;;13.17;;
4756;SDS011;2392;52.578;13.426;2022-12-18T12:21:57;26.17;;;13.67;;
4756;SDS011;2392;52.578;13.426;2022-12-18T12:24:33;29.60;;;14.83;;
4756;SDS011;2392;52.578;13.426;2022-12-18T12:27:14;25.67;;;13.03;;
4756;SDS011;2392;52.578;13.426;2022-12-18T12:29:50;30.03;;;14.63;;
4756;SDS011;2392;52.578;13.426;2022-12-18T12:32:33;28.63;;;14.93;;
4756;SDS011;2392;52.578;13.426;2022-12-18T12:35:17;25.73;;;13.50;;
4756;SDS011;2392;52.578;13.426;2022-12-18T12:37:58;27.77;;;13.50;;
4756;SDS011;2392;52.578;13.426;2022-12-18T12:40:33;25.67;;;14.07;;
4756;SDS011;2392;52.578;13.426;2022-12-18T12:43:04;27.93;;;13.80;;
4756;SDS011;2392;52.578;13.426;2022-12-18T12:45:42;26.03;;;13.87;;
4756;SDS011;2392;52.578;13.426;2022-12-18T12:48:16;26.97;;;15.20;;
4756;SDS011;2392;52.578;13.426;2022-12-18T12:50:56;23.97;;;11.97;;
4756;SDS011;2392;52.578;13.426;2022-12-18T12:53:26;26.60;;;14.27;;
4756;SDS011;2392;52.578;13.426;2022-12-18T12:55:56;26.73;;;14.30;;
4756;SDS011;2392;52.578;13.426;2022-12-18T12:58:26;28.03;;;14.40;;
4756;SDS011;2392;52.578;13.426;2022-12-18T13:01:04;24.50;;;12.80;;
4756;SDS011;2392;52.578;13.426;2022-12-18T13:03:46;27.93;;;12.20;;
4756;SDS011;2392;52.578;13.426;2022-12-18T13:06:25;21.20;;;12.70;;
4756;SDS011;2392;52.578;13.426;2022-12-18T13:09:05;30.50;;;14.53;;
4756;SDS011;2392;52.578;13.426;2022-12-18T13:11:41;26.07;;;13.00;;
4756;SDS011;2392;52.578;13.426;2022-12-18T13:14:28;25.23;;;12.97;;
4756;SDS011;2392;52.578;13.426;2022-12-18T13:17:21;24.03;;;11.03;;
4756;SDS011;2392;52.578;13.426;2022-12-18T13:20:11;21.40;;;12.37;;
4756;SDS011;2392;52.578;13.426;2022-12-18T13:22:40;21.27;;;12.80;;
4756;SDS011;2392;52.578;13.426;2022-12-18T13:25:28;28.40;;;13.17;;
4756;SDS011;2392;52.578;13.426;2022-12-18T13:28:07;28.00;;;13.83;;
4756;SDS011;2392;52.578;13.426;2022-12-18T13:30:49;33.93;;;14.30;;
4756;SDS011;2392;52.578;13.426;2022-12-18T13:36:26;24.10;;;13.90;;
4756;SDS011;2392;52.578;13.426;2022-12-18T13:45:37;22.37;;;12.00;;
4756;SDS011;2392;52.578;13.426;2022-12-18T13:48:19;23.40;;;12.87;;
4756;SDS011;2392;52.578;13.426;2022-12-18T13:50:55;21.10;;;11.50;;
4756;SDS011;2392;52.578;13.426;2022-12-18T13:53:26;27.20;;;14.27;;
4756;SDS011;2392;52.578;13.426;2022-12-18T13:55:57;23.10;;;12.33;;
4756;SDS011;2392;52.578;13.426;2022-12-18T13:58:25;24.80;;;12.47;;
4756;SDS011;2392;52.578;13.426;2022-12-18T14:00:52;25.03;;;12.90;;
4756;SDS011;2392;52.578;13.426;2022-12-18T14:03:21;26.53;;;13.60;;
4756;SDS011;2392;52.578;13.426;2022-12-18T14:05:56;26.57;;;13.37;;
4756;SDS011;2392;52.578;13.426;2022-12-18T14:08:29;19.63;;;12.13;;
4756;SDS011;2392;52.578;13.426;2022-12-18T14:11:01;23.80;;;12.90;;
4756;SDS011;2392;52.578;13.426;2022-12-18T14:13:32;25.00;;;12.90;;
4756;SDS011;2392;52.578;13.426;2022-12-18T14:16:03;18.70;;;11.57;;
4756;SDS011;2392;52.578;13.426;2022-12-18T14:18:35;20.17;;;12.20;;
4756;SDS011;2392;52.578;13.426;2022-12-18T14:21:14;28.33;;;13.90;;
4756;SDS011;2392;52.578;13.426;2022-12-18T14:23:45;22.17;;;13.33;;
4756;SDS011;2392;52.578;13.426;2022-12-18T14:26:22;25.13;;;14.63;;
4756;SDS011;2392;52.578;13.426;2022-12-18T14:28:53;23.90;;;13.60;;
4756;SDS011;2392;52.578;13.426;2022-12-18T14:31:21;24.20;;;12.40;;
4756;SDS011;2392;52.578;13.426;2022-12-18T14:33:49;23.40;;;14.00;;
4756;SDS011;2392;52.578;13.426;2022-12-18T14:36:18;22.47;;;14.13;;
4756;SDS011;2392;52.578;13.426;2022-12-18T14:38:48;31.33;;;15.83;;
4756;SDS011;2392;52.578;13.426;2022-12-18T14:41:17;23.67;;;14.27;;
4756;SDS011;2392;52.578;13.426;2022-12-18T14:43:46;18.60;;;12.80;;
4756;SDS011;2392;52.578;13.426;2022-12-18T14:46:30;25.67;;;13.00;;
4756;SDS011;2392;52.578;13.426;2022-12-18T14:49:01;29.30;;;14.10;;
4756;SDS011;2392;52.578;13.426;2022-12-18T14:51:31;20.70;;;12.90;;
4756;SDS011;2392;52.578;13.426;2022-12-18T14:54:00;22.00;;;12.70;;
4756;SDS011;2392;52.578;13.426;2022-12-18T14:56:29;25.37;;;14.93;;
4756;SDS011;2392;52.578;13.426;2022-12-18T14:58:58;29.70;;;16.20;;
4756;SDS011;2392;52.578;13.426;2022-12-18T15:01:28;25.23;;;13.53;;
4756;SDS011;2392;52.578;13.426;2022-12-18T15:03:58;22.57;;;13.60;;
4756;SDS011;2392;52.578;13.426;2022-12-18T15:06:27;24.63;;;14.13;;
4756;SDS011;2392;52.578;13.426;2022-12-18T15:09:00;32.10;;;15.80;;
4756;SDS011;2392;52.578;13.426;2022-12-18T15:11:33;26.50;;;15.37;;